Pagina principale
METAR-TAF:

METAR-TAF

Aeroporti :

Chongqing, Cina

latitudine: 29-31N, longitudine: 106-29E, altezza: 351 m

Osservazione

Il bollettino è stato emesso 20 minuti fa, alle 06:00 UTC
Vento 6 kt da sud/sud-est, variando fra sud-est e sud/sud-ovest
Temperature 24°C
Umidità 74%
Pressione 1016 hPa
Visibilità 10 km o più
Poco nuvoloso ad un'altezza di 2300 ft
Nubi sparse ad un'altezza di 5000 ft

METAR: ZUCK 210600Z 16003MPS 140V200 9999 FEW023 SCT050 24/19 Q1016 NOSIG

Ora: 14:20 (06:20 UTC)

Previsione

Il bollettino è stato emesso 3 ore e 14 minuti fa, alle 03:06 UTC
Previsione valida dal 21 alle 06 UTC al 22 alle 06 UTC
Vento 6 kt da sud-est
Visibilità: 6000 m
Nubi sparse ad un'altezza di 2000 ft
Cielo coperto ad un'altezza di 5000 ft

TAF: ZUCK 210306Z 2106/2206 14003MPS 6000 SCT020 OVC050 TX24/2108Z TN20/2121Z

Osservazioni e previsioni meteorologiche di più di 4000 aeroporti (messaggi METAR e TAF).

Le stazioni disponibili sono rappresentate dai dischi gialli e rossi sulla carta.

Puntare il mouse per vedere il nome della stazione.

Clicca sopra per visualizzare le osservazioni e previsioni meteorologiche.

Per cambiare la mappa : fare clic sui pulsanti verdi con una croce nera per ingrandire, il pulsante verde con un trattino per diminuire, o sulla freccia verde per le mappe adiacenti.


METAR-TAF: